createdAt,value
2022-07-29T00:01:03.703Z,17.49
2022-07-29T00:03:30.285Z,17.42
2022-07-29T00:05:56.955Z,17.40
2022-07-29T00:08:23.526Z,17.26
2022-07-29T00:10:50.457Z,17.27
2022-07-29T00:13:17.012Z,17.30
2022-07-29T00:15:43.519Z,17.28
2022-07-29T00:18:09.982Z,17.34
2022-07-29T00:20:36.477Z,17.33
2022-07-29T00:23:02.975Z,17.30
2022-07-29T00:25:29.491Z,17.35
2022-07-29T00:27:57.366Z,17.32
2022-07-29T00:30:24.036Z,17.26
2022-07-29T00:32:50.548Z,17.22
2022-07-29T00:35:35.250Z,17.19
2022-07-29T00:38:02.033Z,17.24
2022-07-29T00:40:28.730Z,17.14
2022-07-29T00:42:55.319Z,17.15
2022-07-29T00:45:23.134Z,17.18
2022-07-29T00:47:50.044Z,17.11
2022-07-29T00:50:16.825Z,17.01
2022-07-29T00:52:44.273Z,17.10
2022-07-29T00:55:15.087Z,17.01
2022-07-29T00:57:43.005Z,16.99
2022-07-29T01:00:12.765Z,16.95
2022-07-29T01:02:39.384Z,16.98
2022-07-29T01:05:06.853Z,16.96
2022-07-29T01:07:37.149Z,16.98
2022-07-29T01:10:06.222Z,16.96
2022-07-29T01:12:34.451Z,16.83
2022-07-29T01:15:03.436Z,16.80
2022-07-29T01:17:37.867Z,16.73
2022-07-29T01:20:10.464Z,16.77
2022-07-29T01:23:02.248Z,16.73
2022-07-29T01:25:56.021Z,16.68
2022-07-29T01:28:45.780Z,16.65
2022-07-29T01:31:39.653Z,16.67
2022-07-29T01:34:28.808Z,16.69
2022-07-29T01:37:30.646Z,16.65
2022-07-29T01:39:59.902Z,16.61
2022-07-29T01:42:36.442Z,16.61
2022-07-29T01:45:22.607Z,16.59
2022-07-29T01:47:52.114Z,16.67
2022-07-29T01:50:24.220Z,16.67
2022-07-29T01:52:55.269Z,16.66
2022-07-29T01:55:26.073Z,16.57
2022-07-29T01:57:52.829Z,16.63
2022-07-29T02:00:19.966Z,16.67
2022-07-29T02:02:49.965Z,16.70
2022-07-29T02:05:21.419Z,16.77
2022-07-29T02:07:50.105Z,16.69
2022-07-29T02:10:19.695Z,16.63
2022-07-29T02:12:54.861Z,16.57
2022-07-29T02:15:24.195Z,16.63
2022-07-29T02:17:55.803Z,16.70
2022-07-29T02:20:24.582Z,16.69
2022-07-29T02:22:53.068Z,16.72
2022-07-29T02:25:21.591Z,16.70
2022-07-29T02:27:51.522Z,16.72
2022-07-29T02:30:20.402Z,16.65
2022-07-29T02:32:49.432Z,16.59
2022-07-29T02:35:17.621Z,16.56
2022-07-29T02:37:46.535Z,16.55
2022-07-29T02:40:15.963Z,16.54
2022-07-29T02:42:44.801Z,16.54
2022-07-29T02:45:11.574Z,16.58
2022-07-29T02:47:44.610Z,16.55
2022-07-29T02:50:16.362Z,16.48
2022-07-29T02:52:46.280Z,16.51
2022-07-29T02:55:35.727Z,16.52
2022-07-29T02:58:06.620Z,16.47
2022-07-29T03:00:37.585Z,16.46
2022-07-29T03:03:07.785Z,16.41
2022-07-29T03:05:36.159Z,16.45
2022-07-29T03:08:10.004Z,16.39
2022-07-29T03:10:39.913Z,16.37
2022-07-29T03:13:08.808Z,16.38
2022-07-29T03:15:36.405Z,16.32
2022-07-29T03:18:03.393Z,16.34
2022-07-29T03:20:29.962Z,16.36
2022-07-29T03:22:56.405Z,16.31
2022-07-29T03:25:22.858Z,16.35
2022-07-29T03:27:50.940Z,16.42
2022-07-29T03:30:21.551Z,16.33
2022-07-29T03:32:48.536Z,16.27
2022-07-29T03:35:17.463Z,16.20
2022-07-29T03:37:45.414Z,16.26
2022-07-29T03:40:34.755Z,16.16
2022-07-29T03:43:02.888Z,16.13
2022-07-29T03:45:32.054Z,16.23
2022-07-29T03:48:03.245Z,16.19
2022-07-29T03:50:31.837Z,16.20
2022-07-29T03:52:58.702Z,16.24
2022-07-29T03:55:27.333Z,16.15
2022-07-29T03:57:54.516Z,16.11
2022-07-29T04:00:21.258Z,16.17
2022-07-29T04:02:49.746Z,16.21
2022-07-29T04:05:17.231Z,16.19
2022-07-29T04:07:48.006Z,16.12
2022-07-29T04:10:16.556Z,16.08
2022-07-29T04:12:43.254Z,16.13
2022-07-29T04:15:10.284Z,16.23
2022-07-29T04:17:36.742Z,16.20
2022-07-29T04:20:03.893Z,16.15
2022-07-29T04:22:30.529Z,16.04
2022-07-29T04:25:00.332Z,15.99
2022-07-29T04:27:30.108Z,16.01
2022-07-29T04:29:57.603Z,15.97
2022-07-29T04:32:25.429Z,15.99
2022-07-29T04:34:52.203Z,15.99
2022-07-29T04:37:18.679Z,15.98
2022-07-29T04:39:45.254Z,16.06
2022-07-29T04:42:11.740Z,16.09
2022-07-29T04:44:39.914Z,16.08
2022-07-29T04:47:10.193Z,16.07
2022-07-29T04:49:39.500Z,16.10
2022-07-29T04:52:06.944Z,16.06
2022-07-29T04:54:34.054Z,16.08
2022-07-29T04:57:00.560Z,16.02
2022-07-29T04:59:27.660Z,16.08
2022-07-29T05:01:54.259Z,16.13
2022-07-29T05:04:21.122Z,16.18
2022-07-29T05:06:47.793Z,16.30
2022-07-29T05:09:14.279Z,16.27
2022-07-29T05:11:40.805Z,16.28
2022-07-29T05:14:07.291Z,16.36
2022-07-29T05:16:34.456Z,16.40
2022-07-29T05:19:01.030Z,16.50
2022-07-29T05:21:27.541Z,16.48
2022-07-29T05:23:54.035Z,16.36
2022-07-29T05:26:20.527Z,16.34
2022-07-29T05:28:47.037Z,16.39
2022-07-29T05:31:15.573Z,16.47
2022-07-29T05:33:42.969Z,16.30
2022-07-29T05:36:09.821Z,16.23
2022-07-29T05:38:37.156Z,16.35
2022-07-29T05:41:04.964Z,16.45
2022-07-29T05:43:31.612Z,16.47
2022-07-29T05:45:58.571Z,16.44
2022-07-29T05:48:25.664Z,16.42
2022-07-29T05:50:52.245Z,16.42
2022-07-29T05:53:19.650Z,16.42
2022-07-29T05:55:50.534Z,16.36
2022-07-29T05:58:17.410Z,16.39
2022-07-29T06:00:44.347Z,16.31
2022-07-29T06:03:10.932Z,16.41
2022-07-29T06:05:37.682Z,16.41
2022-07-29T06:08:06.768Z,16.47
2022-07-29T06:10:33.567Z,16.57
2022-07-29T06:13:00.055Z,16.61
2022-07-29T06:15:26.542Z,16.73
2022-07-29T06:17:59.055Z,16.82
2022-07-29T06:20:31.242Z,16.91
2022-07-29T06:22:58.391Z,16.93
2022-07-29T06:25:24.870Z,16.97
2022-07-29T06:27:51.383Z,16.85
2022-07-29T06:30:17.959Z,16.76
2022-07-29T06:32:44.444Z,16.72
2022-07-29T06:35:40.927Z,16.77
2022-07-29T06:37:58.077Z,16.88
2022-07-29T06:40:45.315Z,16.96
2022-07-29T06:43:11.887Z,16.97
2022-07-29T06:45:42.027Z,17.06
2022-07-29T06:48:09.076Z,17.28
2022-07-29T06:50:35.614Z,17.49
2022-07-29T06:53:02.193Z,17.71
2022-07-29T06:55:28.695Z,17.88
2022-07-29T06:57:55.204Z,17.93
2022-07-29T07:00:21.779Z,18.04
2022-07-29T07:02:48.836Z,18.01
2022-07-29T07:05:15.491Z,17.87
2022-07-29T07:07:41.972Z,17.95
2022-07-29T07:10:08.825Z,17.98
2022-07-29T07:12:35.329Z,17.95
2022-07-29T07:15:01.836Z,17.98
2022-07-29T07:17:28.323Z,17.92
2022-07-29T07:19:54.799Z,17.78
2022-07-29T07:22:21.441Z,17.89
2022-07-29T07:24:47.917Z,18.11
2022-07-29T07:27:14.420Z,18.30
2022-07-29T07:29:42.127Z,18.46
2022-07-29T07:32:10.833Z,18.65
2022-07-29T07:34:38.756Z,18.78
2022-07-29T07:37:05.912Z,18.87
2022-07-29T07:39:32.443Z,19.05
2022-07-29T07:41:59.598Z,19.03
2022-07-29T07:44:26.184Z,19.00
2022-07-29T07:46:53.210Z,19.07
2022-07-29T07:49:21.325Z,19.14
2022-07-29T07:51:50.987Z,19.29
2022-07-29T07:54:18.431Z,19.30
2022-07-29T07:56:50.803Z,19.31
2022-07-29T07:59:19.828Z,19.53
2022-07-29T08:01:48.145Z,19.71
2022-07-29T08:04:27.361Z,19.59
2022-07-29T08:06:55.815Z,19.70
2022-07-29T08:09:29.207Z,19.83
2022-07-29T08:11:57.499Z,20.05
2022-07-29T08:14:24.050Z,20.14
2022-07-29T08:16:50.618Z,20.37
2022-07-29T08:19:17.211Z,20.69
2022-07-29T08:21:43.820Z,20.69
2022-07-29T08:24:30.921Z,20.86
2022-07-29T08:26:57.412Z,21.25
2022-07-29T08:29:23.871Z,21.46
2022-07-29T08:31:50.728Z,21.56
2022-07-29T08:34:17.501Z,21.46
2022-07-29T08:36:44.159Z,21.40
2022-07-29T08:39:16.762Z,21.28
2022-07-29T08:41:57.384Z,21.12
2022-07-29T08:44:29.705Z,21.09
2022-07-29T08:46:57.776Z,21.15
2022-07-29T08:49:24.326Z,20.83
2022-07-29T08:51:51.739Z,21.03
2022-07-29T08:54:19.616Z,21.29
2022-07-29T08:56:50.063Z,21.30
2022-07-29T08:59:17.977Z,21.11
2022-07-29T09:01:47.872Z,21.11
2022-07-29T09:04:16.071Z,21.03
2022-07-29T09:06:49.001Z,20.93
2022-07-29T10:04:48.172Z,23.91
2022-07-29T10:07:14.792Z,23.98
2022-07-29T10:09:55.534Z,24.14
2022-07-29T10:12:23.292Z,23.95
2022-07-29T10:14:51.431Z,23.68
2022-07-29T10:17:19.340Z,23.84
2022-07-29T10:19:46.206Z,23.73
2022-07-29T10:22:12.730Z,23.93
2022-07-29T10:24:39.672Z,24.17
2022-07-29T10:27:08.358Z,24.30
2022-07-29T10:29:35.221Z,24.46
2022-07-29T10:32:23.294Z,24.46
2022-07-29T10:34:58.992Z,24.32
2022-07-29T10:37:57.833Z,24.00
2022-07-29T10:41:02.712Z,24.09
2022-07-29T10:43:39.244Z,24.21
2022-07-29T10:46:09.514Z,24.27
2022-07-29T10:49:06.880Z,24.45
2022-07-29T10:52:02.520Z,24.28
2022-07-29T10:54:49.192Z,24.41
2022-07-29T10:57:53.776Z,24.62
2022-07-29T11:00:19.515Z,24.74
2022-07-29T11:02:50.179Z,24.81
2022-07-29T11:05:21.729Z,24.90
2022-07-29T11:08:12.515Z,25.00
2022-07-29T11:10:48.047Z,24.71
2022-07-29T11:13:44.663Z,24.68
2022-07-29T11:16:16.155Z,24.86
2022-07-29T11:19:13.952Z,24.90
2022-07-29T11:21:53.978Z,24.82
2022-07-29T11:24:28.717Z,24.55
2022-07-29T11:27:18.260Z,24.65
2022-07-29T11:29:58.639Z,24.67
2022-07-29T11:32:37.535Z,24.73
2022-07-29T11:35:18.436Z,24.84
2022-07-29T11:38:23.502Z,24.94
2022-07-29T11:41:25.372Z,24.82
2022-07-29T11:43:53.466Z,24.69
2022-07-29T11:46:53.971Z,24.58
2022-07-29T11:49:31.928Z,24.76
2022-07-29T11:52:02.647Z,24.97
2022-07-29T11:54:38.706Z,25.04
2022-07-29T11:57:22.240Z,25.03
2022-07-29T11:59:49.180Z,25.10
2022-07-29T12:02:37.539Z,25.46
2022-07-29T12:05:10.841Z,25.69
2022-07-29T12:07:39.095Z,25.81
2022-07-29T12:10:08.343Z,25.96
2022-07-29T12:12:39.700Z,26.00
2022-07-29T12:15:21.553Z,26.07
2022-07-29T12:17:49.192Z,26.06
2022-07-29T12:20:24.352Z,26.36
2022-07-29T12:22:51.938Z,26.64
2022-07-29T12:25:34.848Z,26.85
2022-07-29T12:28:04.554Z,26.99
2022-07-29T12:30:41.628Z,26.92
2022-07-29T12:33:23.107Z,26.92
2022-07-29T12:36:15.621Z,26.83
2022-07-29T12:38:44.393Z,26.62
2022-07-29T12:41:11.443Z,26.79
2022-07-29T12:43:38.208Z,26.77
2022-07-29T12:46:15.858Z,26.77
2022-07-29T12:48:44.174Z,26.92
2022-07-29T12:51:13.291Z,27.01
2022-07-29T12:53:40.029Z,27.21
2022-07-29T12:56:26.588Z,27.43
2022-07-29T12:58:54.058Z,27.50
2022-07-29T13:01:21.888Z,27.71
2022-07-29T13:03:56.693Z,27.69
2022-07-29T13:06:31.626Z,27.33
2022-07-29T13:09:02.569Z,27.14
2022-07-29T13:11:30.851Z,27.20
2022-07-29T13:14:06.853Z,27.42
2022-07-29T13:16:33.971Z,27.45
2022-07-29T13:19:10.184Z,27.40
2022-07-29T13:21:37.887Z,27.24
2022-07-29T13:24:05.649Z,26.97
2022-07-29T13:26:32.333Z,27.02
2022-07-29T13:28:58.930Z,27.17
2022-07-29T13:31:25.614Z,27.36
2022-07-29T13:33:52.106Z,26.81
2022-07-29T13:36:19.614Z,26.64
2022-07-29T13:38:46.090Z,26.91
2022-07-29T13:41:12.691Z,26.96
2022-07-29T13:43:39.301Z,26.91
2022-07-29T13:46:05.832Z,26.88
2022-07-29T13:48:32.429Z,26.93
2022-07-29T13:50:58.945Z,26.95
2022-07-29T13:53:26.795Z,26.92
2022-07-29T13:55:54.163Z,26.92
2022-07-29T13:58:20.718Z,26.88
2022-07-29T14:00:47.652Z,26.95
2022-07-29T14:03:14.153Z,27.06
2022-07-29T14:05:40.644Z,26.89
2022-07-29T14:08:07.184Z,26.47
2022-07-29T14:10:33.756Z,26.45
2022-07-29T14:13:00.234Z,26.31
2022-07-29T14:15:27.830Z,26.59
2022-07-29T14:17:54.403Z,26.58
2022-07-29T14:20:20.969Z,26.37
2022-07-29T14:22:48.073Z,26.43
2022-07-29T14:25:15.715Z,26.28
2022-07-29T14:27:44.212Z,26.18
2022-07-29T14:30:11.183Z,26.45
2022-07-29T14:32:37.744Z,26.47
2022-07-29T14:35:05.479Z,26.38
2022-07-29T14:37:39.866Z,26.33
2022-07-29T14:40:08.789Z,26.20
2022-07-29T14:42:35.355Z,26.12
2022-07-29T14:45:01.907Z,26.05
2022-07-29T14:47:28.482Z,26.10
2022-07-29T14:49:54.985Z,26.27
2022-07-29T14:52:21.756Z,25.99
2022-07-29T14:54:48.215Z,25.79
2022-07-29T14:57:14.983Z,25.81
2022-07-29T14:59:42.290Z,25.97
2022-07-29T15:02:09.315Z,26.07
2022-07-29T15:04:35.842Z,26.11
2022-07-29T15:07:02.709Z,26.11
2022-07-29T15:09:29.278Z,26.09
2022-07-29T15:11:56.152Z,26.09
2022-07-29T15:14:22.958Z,25.85
2022-07-29T15:16:49.586Z,25.78
2022-07-29T15:19:19.150Z,25.60
2022-07-29T15:21:59.564Z,25.40
2022-07-29T15:24:26.597Z,25.48
2022-07-29T15:26:53.281Z,25.49
2022-07-29T15:29:19.859Z,25.31
2022-07-29T15:31:46.495Z,25.21
2022-07-29T15:34:13.095Z,25.22
2022-07-29T15:36:52.035Z,25.25
2022-07-29T15:39:20.787Z,25.10
2022-07-29T15:41:47.505Z,25.11
2022-07-29T15:44:14.034Z,25.04
2022-07-29T15:46:59.901Z,25.01
2022-07-29T15:49:46.328Z,25.02
2022-07-29T15:52:16.739Z,25.06
2022-07-29T15:54:43.407Z,25.14
2022-07-29T15:57:10.648Z,25.09
2022-07-29T15:59:37.141Z,25.05
2022-07-29T16:02:04.952Z,25.03
2022-07-29T16:04:32.048Z,24.91
2022-07-29T16:06:59.042Z,24.89
2022-07-29T16:09:26.638Z,24.92
2022-07-29T16:11:54.043Z,24.81
2022-07-29T16:14:21.178Z,24.97
2022-07-29T16:16:48.225Z,25.03
2022-07-29T16:19:14.835Z,25.05
2022-07-29T16:21:41.329Z,25.11
2022-07-29T16:24:08.265Z,25.21
2022-07-29T16:26:35.358Z,25.22
2022-07-29T16:29:01.831Z,25.26
2022-07-29T16:31:28.563Z,25.24
2022-07-29T16:33:56.077Z,25.48
2022-07-29T16:36:23.410Z,25.42
2022-07-29T16:38:50.776Z,25.54
2022-07-29T16:41:17.372Z,25.68
2022-07-29T16:43:43.982Z,25.50
2022-07-29T16:46:17.805Z,25.45
2022-07-29T16:48:45.435Z,25.35
2022-07-29T16:51:12.136Z,25.41
2022-07-29T16:53:41.327Z,26.10
2022-07-29T16:56:08.570Z,26.15
2022-07-29T16:58:43.478Z,25.79
2022-07-29T17:01:10.993Z,25.58
2022-07-29T17:04:00.169Z,25.42
2022-07-29T17:06:29.626Z,25.34
2022-07-29T17:08:56.542Z,25.30
2022-07-29T17:11:23.041Z,25.14
2022-07-29T17:14:10.213Z,25.06
2022-07-29T17:16:36.927Z,25.17
2022-07-29T17:19:03.598Z,25.17
2022-07-29T17:21:30.067Z,25.19
2022-07-29T17:23:56.649Z,25.13
2022-07-29T17:26:23.159Z,25.11
2022-07-29T17:28:49.722Z,25.11
2022-07-29T17:31:16.373Z,25.10
2022-07-29T17:33:42.985Z,24.99
2022-07-29T17:36:24.622Z,24.85
2022-07-29T17:38:57.349Z,24.74
2022-07-29T17:41:24.929Z,24.69
2022-07-29T17:43:51.847Z,24.70
2022-07-29T17:46:19.506Z,24.67
2022-07-29T17:48:46.283Z,24.57
2022-07-29T17:51:13.028Z,24.50
2022-07-29T17:53:39.846Z,24.50
2022-07-29T17:56:06.407Z,24.46
2022-07-29T17:58:33.496Z,24.40
2022-07-29T18:01:00.416Z,24.34
2022-07-29T18:03:27.270Z,24.26
2022-07-29T18:05:53.878Z,24.24
2022-07-29T18:08:20.446Z,24.23
2022-07-29T18:10:46.935Z,24.18
2022-07-29T18:13:13.826Z,24.08
2022-07-29T18:15:40.972Z,23.96
2022-07-29T18:18:07.522Z,23.91
2022-07-29T18:20:34.363Z,23.86
2022-07-29T18:23:01.497Z,23.84
2022-07-29T18:25:28.942Z,23.94
2022-07-29T18:28:00.150Z,23.82
2022-07-29T18:30:27.567Z,23.71
2022-07-29T18:33:19.144Z,23.62
2022-07-29T18:35:40.771Z,23.61
2022-07-29T18:38:07.258Z,23.57
2022-07-29T18:40:33.822Z,23.48
2022-07-29T18:43:00.292Z,23.45
2022-07-29T18:45:28.743Z,23.51
2022-07-29T18:47:56.386Z,23.49
2022-07-29T18:50:28.840Z,23.35
2022-07-29T18:52:58.779Z,23.26
2022-07-29T18:55:26.264Z,23.21
2022-07-29T18:57:56.343Z,23.20
2022-07-29T19:00:24.425Z,23.13
2022-07-29T19:02:51.208Z,22.98
2022-07-29T19:05:18.156Z,22.92
2022-07-29T19:07:44.642Z,22.87
2022-07-29T19:10:11.751Z,22.77
2022-07-29T19:12:38.317Z,22.73
2022-07-29T19:15:05.000Z,22.73
2022-07-29T19:17:31.495Z,22.71
2022-07-29T19:19:58.114Z,22.58
2022-07-29T19:22:24.865Z,22.63
2022-07-29T19:24:51.515Z,22.59
2022-07-29T19:27:18.089Z,22.55
2022-07-29T19:29:44.991Z,22.41
2022-07-29T19:32:11.562Z,22.31
2022-07-29T19:34:38.317Z,22.26
2022-07-29T19:37:05.264Z,22.23
2022-07-29T19:39:35.165Z,22.20
2022-07-29T19:42:03.501Z,22.13
2022-07-29T19:44:30.190Z,22.04
2022-07-29T19:46:56.937Z,21.99
2022-07-29T19:49:23.796Z,21.97
2022-07-29T19:54:20.347Z,21.85
2022-07-29T19:56:46.818Z,21.79
2022-07-29T19:59:13.328Z,21.79
2022-07-29T20:01:39.898Z,21.71
2022-07-29T20:04:06.456Z,21.66
2022-07-29T20:06:33.172Z,21.57
2022-07-29T20:08:59.753Z,21.43
2022-07-29T20:11:26.579Z,21.43
2022-07-29T20:13:53.097Z,21.40
2022-07-29T20:16:19.727Z,21.39
2022-07-29T20:18:46.290Z,21.33
2022-07-29T20:21:13.397Z,21.29
2022-07-29T20:23:39.886Z,21.25
2022-07-29T20:26:09.511Z,21.16
2022-07-29T20:28:37.101Z,21.10
2022-07-29T20:31:03.691Z,21.15
2022-07-29T20:33:30.317Z,21.13
2022-07-29T20:35:56.925Z,21.13
2022-07-29T20:38:23.428Z,21.07
2022-07-29T20:40:50.791Z,21.04
2022-07-29T20:43:17.308Z,21.05
2022-07-29T20:45:43.860Z,21.04
2022-07-29T20:48:10.619Z,20.88
2022-07-29T20:50:37.129Z,20.88
2022-07-29T20:53:03.649Z,20.73
2022-07-29T20:55:31.910Z,20.67
2022-07-29T20:57:58.712Z,20.69
2022-07-29T21:00:25.292Z,20.59
2022-07-29T21:02:51.924Z,20.58
2022-07-29T21:05:18.497Z,20.58
2022-07-29T21:07:45.110Z,20.49
2022-07-29T21:10:11.817Z,20.38
2022-07-29T21:12:38.397Z,20.28
2022-07-29T21:15:06.518Z,20.29
2022-07-29T21:17:38.962Z,20.23
2022-07-29T21:20:08.472Z,20.18
2022-07-29T21:22:35.036Z,20.18
2022-07-29T21:25:01.638Z,20.13
2022-07-29T21:27:46.973Z,20.03
2022-07-29T21:30:13.558Z,20.04
2022-07-29T21:32:40.227Z,20.03
2022-07-29T21:35:19.162Z,20.00
2022-07-29T21:37:53.781Z,19.98
2022-07-29T21:40:20.711Z,19.94
2022-07-29T21:42:47.186Z,19.88
2022-07-29T21:45:13.867Z,19.89
2022-07-29T21:47:40.358Z,19.82
2022-07-29T21:50:07.402Z,19.77
2022-07-29T21:52:33.934Z,19.67
2022-07-29T21:55:03.342Z,19.59
2022-07-29T21:57:29.986Z,19.52
2022-07-29T21:59:59.569Z,19.44
2022-07-29T22:02:29.115Z,19.41
2022-07-29T22:04:55.590Z,19.39
2022-07-29T22:07:22.062Z,19.35
2022-07-29T22:09:48.549Z,19.35
2022-07-29T22:12:15.035Z,19.34
2022-07-29T22:14:41.538Z,19.35
2022-07-29T22:17:08.172Z,19.28
2022-07-29T22:19:34.749Z,19.27
2022-07-29T22:22:01.320Z,19.16
2022-07-29T22:24:27.829Z,19.07
2022-07-29T22:26:54.291Z,19.00
2022-07-29T22:29:20.783Z,19.05
2022-07-29T22:31:47.245Z,19.04
2022-07-29T22:34:14.301Z,18.96
2022-07-29T22:36:41.148Z,18.93
2022-07-29T22:39:07.918Z,18.85
2022-07-29T22:41:34.446Z,18.83
2022-07-29T22:44:01.103Z,18.85
2022-07-29T22:46:27.775Z,18.92
2022-07-29T22:48:54.316Z,18.93
2022-07-29T22:51:21.051Z,18.91
2022-07-29T22:53:47.502Z,18.87
2022-07-29T22:56:14.272Z,18.84
2022-07-29T22:58:40.802Z,18.68
2022-07-29T23:01:07.401Z,18.60
2022-07-29T23:03:34.327Z,18.55
2022-07-29T23:06:00.934Z,18.48
2022-07-29T23:08:27.456Z,18.40
2022-07-29T23:10:53.934Z,18.36
2022-07-29T23:13:20.438Z,18.32
2022-07-29T23:15:46.912Z,18.27
2022-07-29T23:18:13.488Z,18.31
2022-07-29T23:20:40.333Z,18.22
2022-07-29T23:23:06.830Z,18.16
2022-07-29T23:25:33.306Z,18.09
2022-07-29T23:28:00.157Z,18.09
2022-07-29T23:30:28.925Z,18.05
2022-07-29T23:32:55.771Z,18.06
2022-07-29T23:35:23.066Z,18.15
2022-07-29T23:37:49.637Z,18.21
2022-07-29T23:40:16.410Z,18.25
2022-07-29T23:42:43.281Z,18.29
2022-07-29T23:45:10.935Z,18.09
2022-07-29T23:47:37.612Z,17.92
2022-07-29T23:50:05.592Z,17.98
2022-07-29T23:52:32.209Z,17.97
2022-07-29T23:55:37.333Z,17.88
2022-07-29T23:57:45.257Z,17.77
